Flight Track Log - Related Links

Times and Time Zones

All times are in EDT time to prevent confusion due to time zone crossing. See the N508QS flight status page for this flight to view local times or setup timezone preferences in your user account.

Time Position Orientation Groundspeed Altitude Reporting Facility
EDT Latitude Longitude Course Direction KTS MPH feet Rate Location/Type
Tue 06:32:16 PM 42.4667 -71.2500 56° Northeast 191 220 1,300  Level KA90
Tue 06:32:58 PM 42.4833 -71.2167 56° Northeast 184 212 2,400 1,049 Climbing KA90
Tue 06:33:59 PM 42.5167 -71.1500 56° Northeast 242 278 3,100 353 Climbing KA90
Tue 06:34:57 PM 42.5500 -71.0667 61° Northeast 260 299 3,100 508 Level KA90
Tue 06:35:57 PM 42.5833 -70.9667 66° East 267 307 4,100 492 Climbing KA90
Tue 06:36:59 PM 42.6000 -70.8667 77° East 273 314 4,100 1,200 Level KA90
Tue 06:38:42 PM 42.6394 -70.7044 72° East 287 330 7,400 2,393 Climbing Boston Center
Tue 06:39:42 PM 42.6797 -70.6156 58° Northeast 294 338 10,600 2,198 Climbing Boston Center
Tue 06:40:53 PM 42.7358 -70.4894 59° Northeast 334 384 12,200 2,273 Climbing Boston Center
Tue 06:41:54 PM 42.8061 -70.3317 59° Northeast 380 437 15,600 2,926 Climbing Boston Center
Tue 06:42:54 PM 42.8489 -70.1803 69° East 398 458 18,100 2,350 Climbing Boston Center
Tue 06:43:54 PM 42.8853 -70.0172 73° East 423 487 20,300 2,200 Climbing Boston Center
Tue 06:44:54 PM 42.9275 -69.8483 71° East 452 520 22,500 2,050 Climbing Boston Center
Tue 06:45:54 PM 42.9692 -69.6706 72° East 473 544 24,400 1,950 Climbing Boston Center
Tue 06:46:54 PM 43.0106 -69.4925 72° East 486 559 26,400 2,050 Climbing Boston Center
Tue 06:47:54 PM 43.0533 -69.3058 73° East 496 571 28,500 2,250 Climbing Boston Center
Tue 06:48:54 PM 43.0925 -69.1389 72° East 507 583 30,900 2,100 Climbing Boston Center
Tue 06:49:54 PM 43.1278 -68.9975 71° East 501 577 32,700 2,050 Climbing Boston Center
Tue 06:50:54 PM 43.2139 -68.8131 57° Northeast 481 554 35,000 2,000 Climbing Boston Center
Tue 06:51:54 PM 43.2881 -68.6547 57° Northeast 481 554 36,700 1,600 Climbing Boston Center
Tue 06:52:54 PM 43.3406 -68.4856 67° East 476 548 38,200 1,300 Climbing Boston Center
Tue 06:53:54 PM 43.3694 -68.3008 78° East 484 557 39,300 1,100 Climbing Boston Center
Tue 06:54:54 PM 43.4014 -68.0958 78° East 484 557 40,400 850 Climbing Boston Center
Tue 06:55:54 PM 43.4297 -67.9078 78° East 490 564 41,000 300 Climbing Boston Center
Tue 06:56:54 PM 43.4594 -67.7139 78° East 501 577 41,000  Level Boston Center
Tue 06:57:54 PM 43.4886 -67.5197 78° East 506 582 41,000  Level Boston Center
Tue 06:58:54 PM 43.5178 -67.3281 78° East 506 582 41,000  Level Boston Center
Tue 06:59:54 PM 43.5461 -67.1281 79° East 511 588 41,000  Level Boston Center
Tue 07:00:54 PM 43.5808 -66.9356 76° East 511 588 41,000  Level Boston Center
Tue 07:01:39 PM 43.6167 -66.8000 70° East 520 598 41,000  Level Moncton Center
Tue 07:02:39 PM 43.6667 -66.6167 69° East 520 598 41,000  Level Moncton Center
Tue 07:03:39 PM 43.7167 -66.4167 71° East 520 598 41,000  Level Moncton Center
Tue 07:04:39 PM 43.7667 -66.2500 67° East 520 598 41,000  Level Moncton Center
Tue 07:05:39 PM 43.8167 -66.0500 71° East 520 598 41,000  Level Moncton Center
Tue 07:06:39 PM 43.8833 -65.8500 65° Northeast 520 598 41,000  Level Moncton Center
Tue 07:07:39 PM 43.9333 -65.6667 69° East 520 598 41,000  Level Moncton Center
Tue 07:08:39 PM 43.9833 -65.4833 69° East 520 598 41,000  Level Moncton Center
Tue 07:09:39 PM 44.0333 -65.3000 69° East 520 598 41,000  Level Moncton Center
Tue 07:10:39 PM 44.0833 -65.1000 71° East 530 610 41,000  Level Moncton Center
Tue 07:11:39 PM 44.1333 -64.9167 69° East 530 610 41,000  Level Moncton Center
Tue 07:12:39 PM 44.1833 -64.7000 72° East 530 610 41,000  Level Moncton Center
Tue 07:13:39 PM 44.2333 -64.5167 69° East 530 610 41,000  Level Moncton Center
Tue 07:14:39 PM 44.2833 -64.3333 69° East 530 610 41,000  Level Moncton Center
Tue 07:16:39 PM 44.3833 -63.9333 71° East 540 621 41,000  Level Moncton Center
Tue 07:17:39 PM 44.4333 -63.7167 72° East 540 621 41,000  Level Moncton Center
Tue 07:18:39 PM 44.4833 -63.5333 69° East 540 621 41,000  Level Moncton Center
Tue 07:19:39 PM 44.5500 -63.3167 67° East 540 621 41,000  Level Moncton Center
Tue 07:20:39 PM 44.6000 -63.1333 69° East 540 621 41,000  Level Moncton Center
Tue 07:21:39 PM 44.6500 -62.9333 71° East 540 621 41,000  Level Moncton Center
Tue 07:22:39 PM 44.7000 -62.7333 71° East 540 621 41,000  Level Moncton Center
Tue 07:23:39 PM 44.7333 -62.5333 77° East 540 621 41,000  Level Moncton Center
Tue 07:24:39 PM 44.7833 -62.3167 72° East 540 621 41,000  Level Moncton Center
Tue 07:25:01 PM 44.8000 -62.2500 71° East 540 621 41,000  Level Gander Center
Tue 07:26:01 PM 44.8500 -62.0500 71° East 550 633 41,000  Level Gander Center
Tue 07:26:39 PM 44.8833 -61.9167 71° East 540 621 41,000  Level Moncton Center
Tue 07:27:01 PM 44.9167 -61.8500 55° Northeast 540 621 41,000  Level Gander Center
Tue 07:28:01 PM 44.9500 -61.6667 76° East 540 621 41,000  Level Gander Center
Tue 07:28:39 PM 44.9833 -61.5167 73° East 550 633 41,000  Level Moncton Center
Tue 07:29:39 PM 45.0333 -61.3167 70° East 550 633 41,000  Level Moncton Center
Tue 07:30:39 PM 45.0667 -61.1000 78° East 550 633 41,000  Level Moncton Center
Tue 07:31:01 PM 45.1000 -61.0167 60° Northeast 550 633 41,000  Level Gander Center
Tue 07:32:01 PM 45.1500 -60.8333 69° East 550 633 41,000  Level Gander Center
Tue 07:32:39 PM 45.1667 -60.7000 80° East 550 633 41,000  Level Moncton Center
Tue 07:34:44 PM 45.2500 -60.2667 75° East 540 621 41,000  Level Gander Center
Tue 07:35:01 PM 45.2667 -60.2167 65° Northeast 540 621 41,000  Level Gander Center
Tue 07:36:01 PM 45.3167 -60.0000 72° East 540 621 41,000  Level Gander Center
Tue 07:37:01 PM 45.3667 -59.7833 72° East 540 621 41,000  Level Gander Center
Tue 07:37:39 PM 45.3833 -59.6833 77° East 530 610 41,000  Level Moncton Center
Tue 07:38:01 PM 45.4000 -59.6000 74° East 530 610 41,000  Level Gander Center
Tue 07:39:01 PM 45.4500 -59.4000 70° East 530 610 41,000  Level Gander Center
Tue 07:39:39 PM 45.4667 -59.2667 80° East 530 610 41,000  Level Moncton Center
Tue 07:40:39 PM 45.5167 -59.0667 70° East 530 610 41,000  Level Moncton Center
Tue 07:41:01 PM 45.5333 -59.0000 70° East 540 621 41,000  Level Gander Center
Tue 07:42:01 PM 45.5833 -58.7833 72° East 540 621 41,000  Level Gander Center
Tue 07:42:39 PM 45.6000 -58.6500 80° East 530 610 41,000  Level Moncton Center
Tue 07:43:39 PM 45.6333 -58.4667 75° East 530 610 41,000  Level Moncton Center
Tue 07:44:01 PM 45.6500 -58.4000 70° East 530 610 41,000  Level Gander Center
Tue 07:45:01 PM 45.7000 -58.2000 70° East 520 598 41,000  Level Gander Center
Tue 07:45:39 PM 45.7167 -58.0667 80° East 520 598 41,000  Level Moncton Center
Tue 07:46:39 PM 45.7667 -57.8500 72° East 530 610 41,000  Level Moncton Center
Tue 07:47:39 PM 45.7833 -57.6500 83° East 530 610 41,000  Level Moncton Center
Tue 07:48:39 PM 45.8333 -57.4500 70° East 530 610 41,000  Level Moncton Center
Tue 07:49:39 PM 45.8833 -57.2333 72° East 530 610 41,000  Level Moncton Center
Tue 07:50:39 PM 45.9167 -57.0333 76° East 540 621 41,000  Level Moncton Center
Tue 07:51:01 PM 45.9333 -56.9667 70° East 540 621 41,000  Level Gander Center
Tue 07:51:39 PM 45.9500 -56.8167 81° East 540 621 41,000  Level Moncton Center
Tue 07:52:39 PM 45.9833 -56.6167 76° East 540 621 41,000  Level Moncton Center
Tue 07:53:01 PM 46.0000 -56.5167 76° East 540 621 41,000  Level Gander Center
Tue 07:54:01 PM 46.0500 -56.3333 68° East 540 621 41,000  Level Gander Center
Tue 07:54:39 PM 46.0667 -56.1833 81° East 540 621 41,000  Level Moncton Center
Tue 07:55:39 PM 46.1000 -55.9833 76° East 540 621 41,000  Level Moncton Center
Tue 07:56:39 PM 46.1500 -55.7667 72° East 540 621 41,000  Level Moncton Center
Tue 07:57:01 PM 46.1500 -55.7167 90° East 520 598 41,000  Level Gander Center
Tue 07:57:39 PM 46.1667 -55.5667 81° East 520 598 41,000  Level Moncton Center
Tue 07:58:39 PM 46.2000 -55.3833 75° East 520 598 41,000  Level Moncton Center
Tue 07:59:39 PM 46.2333 -55.1667 77° East 530 610 41,000  Level Moncton Center
Tue 08:00:39 PM 46.2667 -54.9667 76° East 530 610 41,000  Level Moncton Center
Tue 08:01:39 PM 46.3167 -54.7333 73° East 530 610 41,000  Level Moncton Center
Tue 08:02:01 PM 46.3167 -54.6833 90° East 530 610 41,000  Level Gander Center
Tue 08:02:39 PM 46.3500 -54.5333 72° East 530 610 41,000  Level Moncton Center
Tue 08:03:39 PM 46.3833 -54.3333 76° East 530 610 41,000  Level Moncton Center
Tue 08:04:01 PM 46.3833 -54.2667 90° East 530 610 41,000  Level Gander Center
Tue 08:05:01 PM 46.4167 -54.0667 76° East 530 610 41,000  Level Gander Center
Tue 08:06:01 PM 46.4500 -53.8667 76° East 530 610 41,000  Level Gander Center
Tue 08:07:01 PM 46.4833 -53.6667 76° East 530 610 41,000  Level Gander Center
Tue 08:08:01 PM 46.5167 -53.4333 78° East 520 598 41,000  Level Gander Center
Tue 08:08:39 PM 46.5333 -53.3000 80° East 520 598 41,000  Level Moncton Center
Tue 08:09:39 PM 46.5667 -53.1000 76° East 520 598 41,000  Level Moncton Center
Tue 08:10:01 PM 46.5667 -53.0167 90° East 530 610 41,000  Level Gander Center
Tue 08:11:01 PM 46.6000 -52.8167 76° East 530 610 41,000  Level Gander Center
Tue 08:11:44 PM 46.6333 -52.6667 72° East 530 610 41,000  Level Gander Center
Tue 08:12:44 PM 46.6500 -52.4333 84° East 530 610 41,000  Level Gander Center
Tue 08:13:44 PM 46.6833 -52.2333 76° East 530 610 41,000  Level Gander Center
Tue 08:14:01 PM 46.7000 -52.1833 64° Northeast 530 610 41,000  Level Gander Center
Tue 08:15:01 PM 46.7167 -51.9833 83° East 520 598 41,000  Level Gander Center
Tue 08:16:01 PM 46.7500 -51.7833 76° East 520 598 41,000  Level Gander Center
Tue 08:17:01 PM 46.7833 -51.5667 77° East 520 598 41,000  Level Gander Center
Tue 08:17:44 PM 46.8000 -51.4167 81° East 520 598 41,000  Level Gander Center
Tue 08:18:44 PM 46.8167 -51.2167 83° East 530 610 41,000  Level Gander Center
Tue 08:19:44 PM 46.8500 -50.9833 78° East 520 598 41,000  Level Gander Center
Tue 08:20:01 PM 46.8667 -50.9333 64° Northeast 520 598 41,000  Level Gander Center
Tue 08:20:44 PM 46.8833 -50.7833 81° East 520 598 41,000  Level Gander Center
Tue 08:21:01 PM 46.9000 -50.7333 64° Northeast 520 598 41,000  Level Gander Center
Tue 08:22:01 PM 46.9000 -50.5333 90° East 520 598 41,000  Level Gander Center
Tue 08:23:01 PM 46.9333 -50.3000 78° East 520 598 41,000  Level Gander Center
Tue 08:24:01 PM 46.9667 -50.1000 76° East 520 598 41,000  Level Gander Center
Tue 08:25:01 PM 47.0167 -49.9000 70° East 520 598 41,000  Level Gander Center
Tue 08:26:01 PM 47.0833 -49.7333 60° Northeast 510 587 41,000  Level Gander Center
Tue 08:26:44 PM 47.1333 -49.6167 58° Northeast 520 598 41,000  Level Gander Center
Tue 08:27:00 PM 47.0000 -50.0000 55° Northeast 511 588 41,000  Level ETMS Enhanced Traffic Management System
Tue 08:27:44 PM 47.2167 -49.4500 55° Northeast 520 598 41,000  Level Gander Center
Tue 08:28:44 PM 47.3000 -49.2833 54° Northeast 510 587 41,000  Level Gander Center
Tue 08:30:00 PM 47.3992 -49.0722 55° Northeast  Level FlightAware Approximate
Tue 08:37:00 PM 47.9400 -47.8913 55° Northeast  Level FlightAware Approximate
Tue 08:38:00 PM 48.0163 -47.7206 56° Northeast  Level FlightAware Approximate
Tue 08:39:00 PM 48.0923 -47.5494 56° Northeast  Level FlightAware Approximate
Tue 08:40:00 PM 48.1681 -47.3776 56° Northeast  Level FlightAware Approximate
Tue 08:41:00 PM 48.2436 -47.2054 57° Northeast  Level FlightAware Approximate
Tue 08:42:00 PM 48.3189 -47.0327 57° Northeast  Level FlightAware Approximate
Tue 08:43:00 PM 48.3938 -46.8594 57° Northeast  Level FlightAware Approximate
Tue 08:44:00 PM 48.4686 -46.6857 57° Northeast  Level FlightAware Approximate
Tue 08:45:00 PM 48.5430 -46.5114 57° Northeast  Level FlightAware Approximate
Tue 08:46:00 PM 48.6172 -46.3366 57° Northeast  Level FlightAware Approximate
Tue 08:47:00 PM 48.6912 -46.1613 57° Northeast  Level FlightAware Approximate
Tue 08:48:00 PM 48.7649 -45.9855 58° Northeast  Level FlightAware Approximate
Tue 08:49:00 PM 48.8383 -45.8092 58° Northeast  Level FlightAware Approximate
Tue 08:50:00 PM 48.9114 -45.6323 58° Northeast  Level FlightAware Approximate
Tue 08:51:00 PM 48.9842 -45.4550 58° Northeast  Level FlightAware Approximate
Tue 08:52:00 PM 49.0568 -45.2771 58° Northeast  Level FlightAware Approximate
Tue 08:53:00 PM 49.1292 -45.0987 58° Northeast  Level FlightAware Approximate
Tue 08:54:00 PM 49.2012 -44.9198 58° Northeast  Level FlightAware Approximate
Tue 08:55:00 PM 49.2729 -44.7403 58° Northeast  Level FlightAware Approximate
Tue 08:56:00 PM 49.3444 -44.5604 59° Northeast  Level FlightAware Approximate
Tue 08:57:00 PM 49.4156 -44.3799 59° Northeast  Level FlightAware Approximate
Tue 08:58:00 PM 49.4865 -44.1989 59° Northeast  Level FlightAware Approximate
Tue 08:59:00 PM 49.5572 -44.0173 59° Northeast  Level FlightAware Approximate
Tue 09:00:00 PM 49.6275 -43.8353 59° Northeast  Level FlightAware Approximate
Tue 09:01:00 PM 49.6976 -43.6527 59° Northeast  Level FlightAware Approximate
Tue 09:02:00 PM 49.7674 -43.4696 59° Northeast  Level FlightAware Approximate
Tue 09:03:00 PM 49.8369 -43.2860 60° Northeast  Level FlightAware Approximate
Tue 09:04:00 PM 49.9061 -43.1018 60° Northeast  Level FlightAware Approximate
Tue 09:05:00 PM 49.9750 -42.9171 60° Northeast  Level FlightAware Approximate
Tue 09:06:00 PM 50.0436 -42.7319 60° Northeast  Level FlightAware Approximate
Tue 09:07:00 PM 50.1119 -42.5461 60° Northeast  Level FlightAware Approximate
Tue 09:08:00 PM 50.1799 -42.3599 60° Northeast  Level FlightAware Approximate
Tue 09:09:00 PM 50.2477 -42.1730 60° Northeast  Level FlightAware Approximate
Tue 09:10:00 PM 50.3151 -41.9857 61° Northeast  Level FlightAware Approximate
Tue 09:11:00 PM 50.3822 -41.7978 61° Northeast  Level FlightAware Approximate
Tue 09:12:00 PM 50.4490 -41.6094 61° Northeast  Level FlightAware Approximate
Tue 09:13:00 PM 50.5155 -41.4205 61° Northeast  Level FlightAware Approximate
Tue 09:14:00 PM 50.5817 -41.2310 61° Northeast  Level FlightAware Approximate
Tue 09:15:00 PM 50.6476 -41.0410 61° Northeast  Level FlightAware Approximate
Tue 09:16:00 PM 50.7132 -40.8505 61° Northeast  Level FlightAware Approximate
Tue 09:17:00 PM 50.7785 -40.6595 62° Northeast  Level FlightAware Approximate
Tue 09:18:00 PM 50.8434 -40.4679 62° Northeast  Level FlightAware Approximate
Tue 09:19:00 PM 50.9081 -40.2757 62° Northeast  Level FlightAware Approximate
Tue 09:19:00 PM 51.0000 -40.0000 60° Northeast 508 585 41,000  Level ETMS Enhanced Traffic Management System
Tue 09:20:00 PM 50.9724 -40.0831 62° Northeast  Level FlightAware Approximate
Tue 09:21:00 PM 51.0392 -39.8925 60° Northeast  Level FlightAware Approximate
Tue 09:22:00 PM 51.1079 -39.7031 60° Northeast  Level FlightAware Approximate
Tue 09:23:00 PM 51.1762 -39.5132 60° Northeast  Level FlightAware Approximate
Tue 09:24:00 PM 51.2443 -39.3227 60° Northeast  Level FlightAware Approximate
Tue 09:25:00 PM 51.5569 -38.4286 61° Northeast 508 585 41,000  Level FlightAware Transoceanic
Tue 09:26:00 PM 51.6250 -38.2295 61° Northeast 508 585 41,000  Level FlightAware Transoceanic
Tue 09:27:00 PM 51.6928 -38.0298 61° Northeast 508 585 41,000  Level FlightAware Transoceanic
Tue 09:28:00 PM 51.7603 -37.8294 62° Northeast 508 585 41,000  Level FlightAware Transoceanic
Tue 09:29:00 PM 51.8274 -37.6286 62° Northeast 508 585 41,000  Level FlightAware Transoceanic
Tue 09:30:00 PM 51.8941 -37.4271 62° Northeast 508 585 41,000  Level FlightAware Transoceanic
Tue 09:31:00 PM 51.9606 -37.2249 62° Northeast 508 585 41,000  Level FlightAware Transoceanic
Tue 09:32:00 PM 52.0266 -37.0223 62° Northeast 508 585 41,000  Level FlightAware Transoceanic
Tue 09:33:00 PM 52.0924 -36.8190 62° Northeast 508 585 41,000  Level FlightAware Transoceanic
Tue 09:34:00 PM 52.1577 -36.6151 63° Northeast 508 585 41,000  Level FlightAware Transoceanic
Tue 09:35:00 PM 52.2227 -36.4106 63° Northeast 508 585 41,000  Level FlightAware Transoceanic
Tue 09:36:00 PM 52.2874 -36.2055 63° Northeast 508 585 41,000  Level FlightAware Transoceanic
Tue 09:37:00 PM 52.3517 -35.9998 63° Northeast 508 585 41,000  Level FlightAware Transoceanic
Tue 09:38:00 PM 52.4156 -35.7935 63° Northeast 508 585 41,000  Level FlightAware Transoceanic
Tue 09:39:00 PM 52.4792 -35.5866 63° Northeast 508 585 41,000  Level FlightAware Transoceanic
Tue 09:40:00 PM 52.5425 -35.3791 63° Northeast 508 585 41,000  Level FlightAware Transoceanic
Tue 09:41:00 PM 52.6053 -35.1711 64° Northeast 508 585 41,000  Level FlightAware Transoceanic
Tue 09:42:00 PM 52.6678 -34.9624 64° Northeast 508 585 41,000  Level FlightAware Transoceanic
Tue 09:43:00 PM 52.7299 -34.7531 64° Northeast 508 585 41,000  Level FlightAware Transoceanic
Tue 09:44:00 PM 52.7917 -34.5433 64° Northeast 508 585 41,000  Level FlightAware Transoceanic
Tue 09:45:00 PM 52.8531 -34.3328 64° Northeast 508 585 41,000  Level FlightAware Transoceanic
Tue 09:46:00 PM 52.9141 -34.1217 64° Northeast 508 585 41,000  Level FlightAware Transoceanic
Tue 09:47:00 PM 52.9748 -33.9101 65° Northeast 508 585 41,000  Level FlightAware Transoceanic
Tue 09:48:00 PM 53.0350 -33.6978 65° Northeast 508 585 41,000  Level FlightAware Transoceanic
Tue 09:49:00 PM 53.0949 -33.4850 65° Northeast 508 585 41,000  Level FlightAware Transoceanic
Tue 09:50:00 PM 53.1544 -33.2716 65° Northeast 508 585 41,000  Level FlightAware Transoceanic
Tue 09:51:00 PM 53.2135 -33.0576 65° Northeast 508 585 41,000  Level FlightAware Transoceanic
Tue 09:52:00 PM 53.2723 -32.8430 66° East 508 585 41,000  Level FlightAware Transoceanic
Tue 09:53:00 PM 53.3306 -32.6278 66° East 508 585 41,000  Level FlightAware Transoceanic
Tue 09:54:00 PM 53.3886 -32.4120 66° East 508 585 41,000  Level FlightAware Transoceanic
Tue 09:55:00 PM 53.4462 -32.1956 66° East 508 585 41,000  Level FlightAware Transoceanic
Tue 09:56:00 PM 53.5033 -31.9787 66° East 508 585 41,000  Level FlightAware Transoceanic
Tue 09:57:00 PM 53.5601 -31.7612 66° East 508 585 41,000  Level FlightAware Transoceanic
Tue 09:58:00 PM 53.6165 -31.5430 67° East 508 585 41,000  Level FlightAware Transoceanic
Tue 09:59:00 PM 53.6725 -31.3243 67° East 508 585 41,000  Level FlightAware Transoceanic
Tue 10:00:00 PM 53.7281 -31.1050 67° East 508 585 41,000  Level FlightAware Transoceanic
Tue 10:01:00 PM 53.7833 -30.8852 67° East 508 585 41,000  Level FlightAware Transoceanic
Tue 10:02:00 PM 53.8381 -30.6647 67° East 508 585 41,000  Level FlightAware Transoceanic
Tue 10:03:00 PM 53.8925 -30.4437 67° East 508 585 41,000  Level FlightAware Transoceanic
Tue 10:04:00 PM 53.9464 -30.2222 68° East 508 585 41,000  Level FlightAware Transoceanic
Tue 10:05:00 PM 53.9986 -30.0060 68° East  Level FlightAware Approximate
Tue 10:06:00 PM 54.0504 -29.7894 68° East  Level FlightAware Approximate
Tue 10:06:00 PM 54.0000 -30.0000 76° East 504 580 41,000  Level ETMS Enhanced Traffic Management System
Tue 10:07:00 PM 54.0293 -29.7849 77° East  Level FlightAware Approximate
Tue 10:08:00 PM 54.0600 -29.5568 77° East  Level FlightAware Approximate
Tue 10:09:00 PM 54.0902 -29.3284 77° East  Level FlightAware Approximate
Tue 10:10:00 PM 54.1200 -29.0996 77° East  Level FlightAware Approximate
Tue 10:11:00 PM 54.1493 -28.8705 78° East  Level FlightAware Approximate
Tue 10:12:00 PM 54.2234 -28.3701 77° East 504 580 41,000  Level FlightAware Transoceanic
Tue 10:13:00 PM 54.2535 -28.1359 78° East 504 580 41,000  Level FlightAware Transoceanic
Tue 10:14:00 PM 54.2832 -27.9013 78° East 504 580 41,000  Level FlightAware Transoceanic
Tue 10:15:00 PM 54.3124 -27.6663 78° East 504 580 41,000  Level FlightAware Transoceanic
Tue 10:16:00 PM 54.3411 -27.4311 78° East 504 580 41,000  Level FlightAware Transoceanic
Tue 10:17:00 PM 54.3694 -27.1955 78° East 504 580 41,000  Level FlightAware Transoceanic
Tue 10:18:00 PM 54.3972 -26.9596 79° East 504 580 41,000  Level FlightAware Transoceanic
Tue 10:19:00 PM 54.4246 -26.7234 79° East 504 580 41,000  Level FlightAware Transoceanic
Tue 10:20:00 PM 54.4515 -26.4869 79° East 504 580 41,000  Level FlightAware Transoceanic
Tue 10:21:00 PM 54.4780 -26.2500 79° East 504 580 41,000  Level FlightAware Transoceanic
Tue 10:22:00 PM 54.5039 -26.0129 79° East 504 580 41,000  Level FlightAware Transoceanic
Tue 10:23:00 PM 54.5294 -25.7754 80° East 504 580 41,000  Level FlightAware Transoceanic
Tue 10:24:00 PM 54.5545 -25.5377 80° East 504 580 41,000  Level FlightAware Transoceanic
Tue 10:25:00 PM 54.5791 -25.2996 80° East 504 580 41,000  Level FlightAware Transoceanic
Tue 10:26:00 PM 54.6032 -25.0613 80° East 504 580 41,000  Level FlightAware Transoceanic
Tue 10:27:00 PM 54.6268 -24.8227 80° East 504 580 41,000  Level FlightAware Transoceanic
Tue 10:28:00 PM 54.6500 -24.5839 81° East 504 580 41,000  Level FlightAware Transoceanic
Tue 10:29:00 PM 54.6727 -24.3447 81° East 504 580 41,000  Level FlightAware Transoceanic
Tue 10:30:00 PM 54.6950 -24.1053 81° East 504 580 41,000  Level FlightAware Transoceanic
Tue 10:31:00 PM 54.7167 -23.8657 81° East 504 580 41,000  Level FlightAware Transoceanic
Tue 10:32:00 PM 54.7380 -23.6257 81° East 504 580 41,000  Level FlightAware Transoceanic
Tue 10:33:00 PM 54.7588 -23.3856 82° East 504 580 41,000  Level FlightAware Transoceanic
Tue 10:34:00 PM 54.7792 -23.1452 82° East 504 580 41,000  Level FlightAware Transoceanic
Tue 10:35:00 PM 54.7990 -22.9045 82° East 504 580 41,000  Level FlightAware Transoceanic
Tue 10:36:00 PM 54.8184 -22.6636 82° East 504 580 41,000  Level FlightAware Transoceanic
Tue 10:37:00 PM 54.8373 -22.4225 82° East 504 580 41,000  Level FlightAware Transoceanic
Tue 10:38:00 PM 54.8558 -22.1812 83° East 504 580 41,000  Level FlightAware Transoceanic
Tue 10:39:00 PM 54.8737 -21.9396 83° East 504 580 41,000  Level FlightAware Transoceanic
Tue 10:40:00 PM 54.8912 -21.6978 83° East 504 580 41,000  Level FlightAware Transoceanic
Tue 10:41:00 PM 54.9082 -21.4559 83° East 504 580 41,000  Level FlightAware Transoceanic
Tue 10:42:00 PM 54.9247 -21.2137 83° East 504 580 41,000  Level FlightAware Transoceanic
Tue 10:43:00 PM 54.9407 -20.9713 84° East 504 580 41,000  Level FlightAware Transoceanic
Tue 10:44:00 PM 54.9563 -20.7288 84° East 504 580 41,000  Level FlightAware Transoceanic
Tue 10:45:00 PM 54.9713 -20.4860 84° East 504 580 41,000  Level FlightAware Transoceanic
Tue 10:46:00 PM 54.9859 -20.2431 84° East 504 580 41,000 -93 Level FlightAware Transoceanic
Tue 10:47:00 PM 54.9997 -20.0048 84° East  Level FlightAware Approximate
Tue 10:48:00 PM 55.0129 -19.7663 84° East  Level FlightAware Approximate
Tue 10:49:00 PM 54.9864 -19.7714 96° East  Level FlightAware Approximate
Tue 10:50:00 PM 54.9717 -19.5334 96° East  Level FlightAware Approximate
Tue 10:51:00 PM 54.9566 -19.2955 96° East  Level FlightAware Approximate
Tue 10:52:00 PM 54.9410 -19.0578 96° East  Level FlightAware Approximate
Tue 10:53:00 PM 54.9250 -18.8203 97° East  Level FlightAware Approximate
Tue 10:54:00 PM 54.9089 -18.5829 97° East  Level FlightAware Approximate
Tue 10:55:00 PM 54.8927 -18.3456 97° East  Level FlightAware Approximate
Tue 10:56:00 PM 54.8760 -18.1086 97° East  Level FlightAware Approximate
Tue 10:57:00 PM 54.8589 -17.8717 97° East  Level FlightAware Approximate
Tue 10:58:00 PM 54.8413 -17.6350 97° East  Level FlightAware Approximate
Tue 10:59:00 PM 54.8232 -17.3985 97° East  Level FlightAware Approximate
Tue 11:00:00 PM 54.8047 -17.1623 98° East  Level FlightAware Approximate
Tue 11:01:00 PM 54.7858 -16.9262 98° East  Level FlightAware Approximate
Tue 11:02:00 PM 54.7664 -16.6904 98° East  Level FlightAware Approximate
Tue 11:03:00 PM 54.7465 -16.4548 98° East  Level FlightAware Approximate
Tue 11:04:00 PM 54.7262 -16.2195 98° East  Level FlightAware Approximate
Tue 11:05:00 PM 54.7054 -15.9843 99° East  Level FlightAware Approximate
Tue 11:06:00 PM 54.6841 -15.7495 99° East  Level FlightAware Approximate
Tue 11:07:00 PM 54.6624 -15.5148 99° East  Level FlightAware Approximate
Tue 11:08:00 PM 54.6403 -15.2805 99° East  Level FlightAware Approximate
Tue 11:09:00 PM 54.6177 -15.0464 99° East  Level FlightAware Approximate
Tue 11:10:00 PM 54.5945 -14.8125 100° East  Level FlightAware Approximate
Tue 11:11:00 PM 54.5707 -14.5791 100° East  Level FlightAware Approximate
Tue 11:12:00 PM 54.5464 -14.3459 100° East  Level FlightAware Approximate
Tue 11:13:00 PM 54.5216 -14.1129 100° East  Level FlightAware Approximate
Tue 11:14:00 PM 54.4964 -13.8803 100° East  Level FlightAware Approximate
Tue 11:15:00 PM 54.4708 -13.6480 101° East  Level FlightAware Approximate
Tue 11:16:00 PM 54.4447 -13.4159 101° East  Level FlightAware Approximate
Tue 11:17:00 PM 54.4182 -13.1841 101° East  Level FlightAware Approximate
Tue 11:18:00 PM 54.3912 -12.9527 101° East  Level FlightAware Approximate
Tue 11:19:00 PM 54.3638 -12.7215 101° East  Level FlightAware Approximate
Tue 11:20:00 PM 54.3359 -12.4907 102° East  Level FlightAware Approximate
Tue 11:21:00 PM 54.3079 -12.2601 102° East  Level FlightAware Approximate
Tue 11:22:00 PM 54.2802 -12.0295 102° East  Level FlightAware Approximate
Tue 11:23:00 PM 54.2520 -11.7993 102° East  Level FlightAware Approximate
Tue 11:24:00 PM 54.2233 -11.5694 102° East  Level FlightAware Approximate
Tue 11:25:00 PM 54.1946 -11.3396 102° East  Level FlightAware Approximate
Tue 11:26:00 PM 54.1655 -11.1102 102° East  Level FlightAware Approximate
Tue 11:27:00 PM 54.1360 -10.8811 102° East  Level FlightAware Approximate
Tue 11:28:00 PM 54.1061 -10.6523 102° East  Level FlightAware Approximate
Tue 11:29:00 PM 54.0757 -10.4238 103° East  Level FlightAware Approximate
Tue 11:30:00 PM 54.0420 -10.1972 111° Southeast  Level FlightAware Approximate
Tue 11:31:00 PM 54.0045 -9.9731 101° East  Level FlightAware Approximate
Tue 11:31:21 PM 54.1198 -8.9697 101° East 462 532 36,700  Level FlightAware UK
Tue 11:31:39 PM 54.1061 -8.8986 108° East 468 539 36,100 -2,167 Descending FlightAware UK
Tue 11:31:57 PM 54.0923 -8.8277 108° East 470 541 35,400 -2,333 Descending FlightAware UK
Tue 11:32:15 PM 54.0786 -8.7570 108° East 472 543 34,700 -2,333 Descending FlightAware UK
Tue 11:32:33 PM 54.0648 -8.6858 108° East 472 543 34,000 -2,333 Descending FlightAware UK
Tue 11:32:51 PM 54.0504 -8.6133 109° East 474 545 33,300 -2,333 Descending FlightAware UK
Tue 11:33:09 PM 54.0361 -8.5419 109° East 474 545 32,600 -2,333 Descending FlightAware UK
Tue 11:33:27 PM 54.0218 -8.4704 109° East 474 545 31,900 -2,270 Descending FlightAware UK
Tue 11:33:46 PM 54.0073 -8.3981 109° East 474 545 31,200 -2,108 Descending FlightAware UK
Tue 11:34:04 PM 53.9929 -8.3266 109° East 476 548 30,600 -1,667 Descending FlightAware UK
Tue 11:34:22 PM 53.9785 -8.2550 109° East 474 545 30,200 -1,167 Descending FlightAware UK
Tue 11:34:40 PM 53.9641 -8.1833 109° East 476 548 29,900 -1,000 Descending FlightAware UK
Tue 11:34:58 PM 53.9495 -8.1108 109° East 474 545 29,600 -1,500 Descending FlightAware UK
Tue 11:35:16 PM 53.9349 -8.0394 109° East 472 543 29,000 -2,167 Descending FlightAware UK
Tue 11:35:34 PM 53.9203 -7.9686 109° East 466 536 28,300 -2,500 Descending FlightAware UK
Tue 11:35:52 PM 53.9059 -7.8995 109° East 458 527 27,500 -2,667 Descending FlightAware UK
Tue 11:36:10 PM 53.8926 -7.8324 109° East 454 522 26,700 -2,833 Descending FlightAware UK
Tue 11:36:28 PM 53.8810 -7.7648 106° East 450 518 25,800 -3,167 Descending FlightAware UK
Tue 11:36:46 PM 53.8714 -7.6966 104° East 444 511 24,800 -3,167 Descending FlightAware UK
Tue 11:37:04 PM 53.8631 -7.6294 102° East 440 506 23,900 -3,167 Descending FlightAware UK
Tue 11:37:22 PM 53.8548 -7.5632 102° East 432 497 22,900 -3,000 Descending FlightAware UK
Tue 11:37:40 PM 53.8467 -7.4987 102° East 424 488 22,100 -2,500 Descending FlightAware UK
Tue 11:37:58 PM 53.8383 -7.4345 102° East 420 483 21,400 -2,333 Descending FlightAware UK
Tue 11:38:16 PM 53.8300 -7.3699 102° East 418 481 20,700 -2,333 Descending FlightAware UK
Tue 11:38:34 PM 53.8218 -7.3059 102° East 412 474 20,000 -2,333 Descending FlightAware UK
Tue 11:38:52 PM 53.8138 -7.2436 102° East 408 470 19,300 -2,500 Descending FlightAware UK
Tue 11:39:10 PM 53.8056 -7.1810 102° East 406 467 18,500 -2,500 Descending FlightAware UK
Tue 11:39:28 PM 53.7975 -7.1197 103° East 400 460 17,800 -2,333 Descending FlightAware UK
Tue 11:39:46 PM 53.7896 -7.0587 102° East 396 456 17,100 -1,833 Descending FlightAware UK
Tue 11:40:04 PM 53.7817 -6.9990 103° East 394 453 16,700 -1,500 Descending FlightAware UK
Tue 11:40:22 PM 53.7737 -6.9387 103° East 390 449 16,200 -1,667 Descending FlightAware UK
Tue 11:40:40 PM 53.7661 -6.8806 102° East 388 447 15,700 -1,667 Descending FlightAware UK
Tue 11:40:58 PM 53.7583 -6.8224 103° East 384 442 15,200 -1,667 Descending FlightAware UK
Tue 11:41:16 PM 53.7501 -6.7648 104° East 382 440 14,700 -1,833 Descending FlightAware UK
Tue 11:41:34 PM 53.7368 -6.7107 112° Southeast 378 435 14,100 -2,167 Descending FlightAware UK
Tue 11:41:52 PM 53.7212 -6.6589 117° Southeast 378 435 13,400 -2,333 Descending FlightAware UK
Tue 11:42:10 PM 53.7041 -6.6092 120° Southeast 372 428 12,700 -2,333 Descending FlightAware UK
Tue 11:42:28 PM 53.6876 -6.5607 120° Southeast 366 421 12,000 -2,167 Descending FlightAware UK
Tue 11:42:46 PM 53.6715 -6.5132 120° Southeast 358 412 11,400 -2,000 Descending FlightAware UK
Tue 11:43:04 PM 53.6560 -6.4680 120° Southeast 342 394 10,800 -2,000 Descending FlightAware UK
Tue 11:43:22 PM 53.6409 -6.4243 120° Southeast 328 377 10,200 -2,000 Descending FlightAware UK
Tue 11:43:40 PM 53.6263 -6.3827 121° Southeast 318 366 9,600 -2,000 Descending FlightAware UK
Tue 11:43:58 PM 53.6120 -6.3423 121° Southeast 304 350 9,000 -1,784 Descending FlightAware UK
Tue 11:44:17 PM 53.5978 -6.3023 121° Southeast 294 338 8,500 -1,833 Descending FlightAware UK
Tue 11:44:34 PM 53.5847 -6.2658 121° Southeast 286 329 7,900 -2,057 Descending FlightAware UK
Tue 11:44:52 PM 53.5716 -6.2295 121° Southeast 280 322 7,300 -1,833 Descending FlightAware UK
Tue 11:45:10 PM 53.5588 -6.1943 121° Southeast 274 315 6,800 -1,784 Descending FlightAware UK
Tue 11:45:29 PM 53.5462 -6.1600 122° Southeast 264 304 6,200 -2,000 Descending FlightAware UK
Tue 11:45:46 PM 53.5340 -6.1267 122° Southeast 260 299 5,600 -2,057 Descending FlightAware UK
Tue 11:46:04 PM 53.5219 -6.0947 122° Southeast 252 290 5,000 -1,946 Descending FlightAware UK
Tue 11:46:23 PM 53.5098 -6.0625 122° Southeast 242 278 4,400 -1,833 Descending FlightAware UK
Tue 11:46:40 PM 53.4983 -6.0319 122° Southeast 238 274 3,900 -1,886 Descending FlightAware UK
Tue 11:46:58 PM 53.4870 -6.0028 123° Southeast 234 269 3,300 -1,833 Descending FlightAware UK
Tue 11:47:16 PM 53.4753 -5.9729 123° Southeast 240 276 2,800 -1,500 Descending FlightAware UK
Tue 11:47:34 PM 53.4641 -5.9433 122° Southeast 224 258 2,400 -1,167 Descending FlightAware UK
Tue 11:47:52 PM 53.4529 -5.9138 123° Southeast 224 258 2,100 -1,000 Descending FlightAware UK
Tue 11:49:00 PM 53.4301 -6.1724 262° West  Level Estimated
Tue 11:56:00 PM 53.4213 -6.2701 261° West  Level Estimated
Tue 11:57:00 PM 53.4213 -6.2701 315° West  Level Estimated
Tue 11:58:00 PM 53.4213 -6.2701 315° West  Level Estimated
Tue 11:59:00 PM 53.4213 -6.2701 315° West  Level Estimated
Wed 12:00:00 AM 53.4213 -6.2701 315° West  Level Estimated
Wed 12:01:00 AM 53.4213 -6.2701 315° West  Level Estimated
Wed 12:02:00 AM 53.4213 -6.2701 315° West  Level Estimated
Wed 12:03:00 AM 53.4213 -6.2701 315° West  Level Estimated
Wed 12:04:00 AM 53.4213 -6.2701 315° West  Level Estimated
Wed 12:05:00 AM 53.4213 -6.2701 315° West  Level Estimated
Wed 12:06:00 AM 53.4213 -6.2701 315° West  Level Estimated
Wed 12:07:00 AM 53.4213 -6.2701 315° West  Level Estimated
Wed 12:08:00 AM 53.4213 -6.2701 315° West  Level Estimated
Wed 12:09:00 AM 53.4213 -6.2701 315° West  Level Estimated
Wed 12:10:00 AM 53.4213 -6.2701 315° West  Level Estimated

Login

Don't have an account? Register now (free) for customized features, flight alerts, and more!